sensor_id;sensor_type;location;lat;lon;timestamp;pressure;altitude;pressure_sealevel;temperature;humidity
41312;BME280;27061;41.648;24.568;2023-04-08T00:01:18;85776.44;;;5.44;63.74
41312;BME280;27061;41.648;24.568;2023-04-08T00:03:45;85729.69;;;5.13;63.21
41312;BME280;27061;41.648;24.568;2023-04-08T00:06:13;85722.75;;;4.98;63.84
41312;BME280;27061;41.648;24.568;2023-04-08T00:08:40;85768.09;;;5.11;64.62
41312;BME280;27061;41.648;24.568;2023-04-08T00:11:07;85742.00;;;5.06;64.73
41312;BME280;27061;41.648;24.568;2023-04-08T00:13:34;85737.81;;;4.89;64.26
41312;BME280;27061;41.648;24.568;2023-04-08T00:16:01;85748.16;;;4.97;65.12
41312;BME280;27061;41.648;24.568;2023-04-08T00:18:29;85741.91;;;4.84;65.41
41312;BME280;27061;41.648;24.568;2023-04-08T00:20:56;85774.28;;;5.16;65.36
41312;BME280;27061;41.648;24.568;2023-04-08T00:23:23;85786.72;;;5.29;63.85
41312;BME280;27061;41.648;24.568;2023-04-08T00:25:50;85762.63;;;5.15;63.78
41312;BME280;27061;41.648;24.568;2023-04-08T00:28:17;85736.38;;;4.76;65.09
41312;BME280;27061;41.648;24.568;2023-04-08T00:30:44;85743.94;;;4.79;65.58
41312;BME280;27061;41.648;24.568;2023-04-08T00:33:11;85766.69;;;5.02;65.28
41312;BME280;27061;41.648;24.568;2023-04-08T00:35:38;85771.47;;;5.02;65.96
41312;BME280;27061;41.648;24.568;2023-04-08T00:38:05;85745.34;;;4.89;64.52
41312;BME280;27061;41.648;24.568;2023-04-08T00:40:33;85728.09;;;4.66;63.97
41312;BME280;27061;41.648;24.568;2023-04-08T00:43:01;85713.03;;;4.65;64.27
41312;BME280;27061;41.648;24.568;2023-04-08T00:45:28;85768.72;;;5.00;64.39
41312;BME280;27061;41.648;24.568;2023-04-08T00:48:02;85757.69;;;4.90;64.12
41312;BME280;27061;41.648;24.568;2023-04-08T00:50:29;85712.94;;;4.51;64.12
41312;BME280;27061;41.648;24.568;2023-04-08T00:52:56;85761.13;;;4.90;63.93
41312;BME280;27061;41.648;24.568;2023-04-08T00:55:23;85718.50;;;4.63;63.14
41312;BME280;27061;41.648;24.568;2023-04-08T00:57:50;85757.72;;;4.92;62.97
41312;BME280;27061;41.648;24.568;2023-04-08T01:00:17;85733.50;;;4.50;63.53
41312;BME280;27061;41.648;24.568;2023-04-08T01:02:51;85734.84;;;4.47;63.84
41312;BME280;27061;41.648;24.568;2023-04-08T01:05:47;85712.09;;;4.22;62.80
41312;BME280;27061;41.648;24.568;2023-04-08T01:08:17;85761.66;;;4.62;63.54
41312;BME280;27061;41.648;24.568;2023-04-08T01:10:47;85729.31;;;4.40;62.98
41312;BME280;27061;41.648;24.568;2023-04-08T01:13:17;85743.09;;;4.53;62.96
41312;BME280;27061;41.648;24.568;2023-04-08T01:15:49;85726.47;;;4.26;63.14
41312;BME280;27061;41.648;24.568;2023-04-08T01:18:16;85745.03;;;4.32;63.77
41312;BME280;27061;41.648;24.568;2023-04-08T01:20:44;85758.09;;;4.39;63.56
41312;BME280;27061;41.648;24.568;2023-04-08T01:23:19;85770.47;;;4.47;63.72
41312;BME280;27061;41.648;24.568;2023-04-08T01:25:51;85729.22;;;4.22;63.53
41312;BME280;27061;41.648;24.568;2023-04-08T01:28:21;85750.50;;;4.30;64.01
41312;BME280;27061;41.648;24.568;2023-04-08T01:30:50;85756.63;;;4.26;64.35
41312;BME280;27061;41.648;24.568;2023-04-08T01:33:18;85766.28;;;4.33;64.63
41312;BME280;27061;41.648;24.568;2023-04-08T01:35:46;85773.13;;;4.34;65.14
41312;BME280;27061;41.648;24.568;2023-04-08T01:38:15;85734.59;;;4.10;65.02
41312;BME280;27061;41.648;24.568;2023-04-08T01:40:45;85670.50;;;3.55;65.13
41312;BME280;27061;41.648;24.568;2023-04-08T01:43:15;85777.94;;;4.34;65.26
41312;BME280;27061;41.648;24.568;2023-04-08T01:45:44;85778.59;;;4.34;65.11
41312;BME280;27061;41.648;24.568;2023-04-08T01:48:12;85770.44;;;4.40;64.17
41312;BME280;27061;41.648;24.568;2023-04-08T01:50:44;85700.19;;;3.87;63.86
41312;BME280;27061;41.648;24.568;2023-04-08T01:53:12;85778.00;;;4.42;62.48
41312;BME280;27061;41.648;24.568;2023-04-08T01:55:41;85769.69;;;4.32;62.98
41312;BME280;27061;41.648;24.568;2023-04-08T01:58:11;85759.28;;;4.16;63.73
41312;BME280;27061;41.648;24.568;2023-04-08T02:00:43;85745.31;;;3.80;65.93
41312;BME280;27061;41.648;24.568;2023-04-08T02:03:13;85782.53;;;4.09;66.48
41312;BME280;27061;41.648;24.568;2023-04-08T02:05:45;85792.25;;;4.22;64.67
41312;BME280;27061;41.648;24.568;2023-04-08T02:08:12;85775.63;;;4.04;64.52
41312;BME280;27061;41.648;24.568;2023-04-08T02:10:39;85702.66;;;3.54;65.15
41312;BME280;27061;41.648;24.568;2023-04-08T02:13:07;85764.56;;;3.88;66.08
41312;BME280;27061;41.648;24.568;2023-04-08T02:15:37;85799.00;;;4.15;66.00
41312;BME280;27061;41.648;24.568;2023-04-08T02:18:15;85807.94;;;4.16;65.68
41312;BME280;27061;41.648;24.568;2023-04-08T02:20:49;85732.78;;;3.56;65.26
41312;BME280;27061;41.648;24.568;2023-04-08T02:23:22;85768.66;;;3.87;65.76
41312;BME280;27061;41.648;24.568;2023-04-08T02:25:55;85785.13;;;3.91;64.61
41312;BME280;27061;41.648;24.568;2023-04-08T02:28:25;85762.34;;;3.72;65.55
41312;BME280;27061;41.648;24.568;2023-04-08T02:30:56;85800.34;;;4.08;66.01
41312;BME280;27061;41.648;24.568;2023-04-08T02:33:23;85747.91;;;3.63;66.22
41312;BME280;27061;41.648;24.568;2023-04-08T02:35:52;85805.78;;;4.06;66.39
41312;BME280;27061;41.648;24.568;2023-04-08T02:38:22;85760.41;;;3.81;66.36
41312;BME280;27061;41.648;24.568;2023-04-08T02:40:50;85697.59;;;3.22;66.60
41312;BME280;27061;41.648;24.568;2023-04-08T02:43:17;85807.84;;;4.05;67.83
41312;BME280;27061;41.648;24.568;2023-04-08T02:45:44;85710.75;;;3.40;67.93
41312;BME280;27061;41.648;24.568;2023-04-08T02:48:11;85766.53;;;3.77;68.22
41312;BME280;27061;41.648;24.568;2023-04-08T02:50:38;85691.41;;;3.20;67.63
41312;BME280;27061;41.648;24.568;2023-04-08T02:53:07;85801.59;;;3.95;66.82
41312;BME280;27061;41.648;24.568;2023-04-08T02:55:36;85754.78;;;3.66;67.42
41312;BME280;27061;41.648;24.568;2023-04-08T02:58:03;85740.97;;;3.52;67.58
41312;BME280;27061;41.648;24.568;2023-04-08T03:00:30;85799.59;;;4.01;68.05
41312;BME280;27061;41.648;24.568;2023-04-08T03:02:57;85800.97;;;4.02;68.21
41312;BME280;27061;41.648;24.568;2023-04-08T03:05:25;85811.97;;;4.07;68.00
41312;BME280;27061;41.648;24.568;2023-04-08T03:07:53;85768.53;;;3.75;69.21
41312;BME280;27061;41.648;24.568;2023-04-08T03:10:20;85730.00;;;3.50;69.31
41312;BME280;27061;41.648;24.568;2023-04-08T03:12:47;85820.16;;;4.04;69.52
41312;BME280;27061;41.648;24.568;2023-04-08T03:15:14;85783.06;;;3.93;68.63
41312;BME280;27061;41.648;24.568;2023-04-08T03:17:41;85794.13;;;4.05;68.46
41312;BME280;27061;41.648;24.568;2023-04-08T03:20:09;85790.69;;;4.03;68.77
41312;BME280;27061;41.648;24.568;2023-04-08T03:22:36;85787.94;;;3.99;70.21
41312;BME280;27061;41.648;24.568;2023-04-08T03:25:03;85805.78;;;4.02;69.53
41312;BME280;27061;41.648;24.568;2023-04-08T03:27:30;85804.41;;;4.05;69.46
41312;BME280;27061;41.648;24.568;2023-04-08T03:29:57;85796.09;;;3.95;69.01
41312;BME280;27061;41.648;24.568;2023-04-08T03:32:25;85794.13;;;4.01;68.38
41312;BME280;27061;41.648;24.568;2023-04-08T03:34:52;85803.06;;;4.08;68.75
41312;BME280;27061;41.648;24.568;2023-04-08T03:37:19;85787.25;;;4.00;69.49
41312;BME280;27061;41.648;24.568;2023-04-08T03:39:46;85793.44;;;4.05;70.10
41312;BME280;27061;41.648;24.568;2023-04-08T03:42:13;85768.75;;;3.97;70.33
41312;BME280;27061;41.648;24.568;2023-04-08T03:44:40;85793.50;;;4.11;68.97
41312;BME280;27061;41.648;24.568;2023-04-08T03:47:07;85789.94;;;3.94;68.13
41312;BME280;27061;41.648;24.568;2023-04-08T03:49:34;85807.88;;;4.08;68.21
41312;BME280;27061;41.648;24.568;2023-04-08T03:52:02;85783.75;;;3.90;69.13
41312;BME280;27061;41.648;24.568;2023-04-08T03:54:29;85786.50;;;3.92;69.87
41312;BME280;27061;41.648;24.568;2023-04-08T03:56:56;85776.91;;;3.93;69.88
41312;BME280;27061;41.648;24.568;2023-04-08T03:59:23;85816.84;;;4.18;69.71
41312;BME280;27061;41.648;24.568;2023-04-08T04:01:50;85823.75;;;4.25;70.38
41312;BME280;27061;41.648;24.568;2023-04-08T04:04:19;85770.00;;;3.86;69.33
41312;BME280;27061;41.648;24.568;2023-04-08T04:06:47;85818.25;;;4.19;69.51
41312;BME280;27061;41.648;24.568;2023-04-08T04:09:14;85794.81;;;4.04;69.75
41312;BME280;27061;41.648;24.568;2023-04-08T04:11:42;85805.13;;;4.08;69.41
41312;BME280;27061;41.648;24.568;2023-04-08T04:14:09;85746.63;;;3.71;69.27
41312;BME280;27061;41.648;24.568;2023-04-08T04:16:36;85823.72;;;4.19;69.14
41312;BME280;27061;41.648;24.568;2023-04-08T04:19:04;85807.22;;;4.15;69.38
41312;BME280;27061;41.648;24.568;2023-04-08T04:21:31;85814.03;;;4.08;69.20
41312;BME280;27061;41.648;24.568;2023-04-08T04:23:59;85771.31;;;3.79;70.09
41312;BME280;27061;41.648;24.568;2023-04-08T04:26:26;85743.16;;;3.68;70.39
41312;BME280;27061;41.648;24.568;2023-04-08T04:28:53;85717.63;;;3.45;70.17
41312;BME280;27061;41.648;24.568;2023-04-08T04:31:21;85787.97;;;4.05;69.84
41312;BME280;27061;41.648;24.568;2023-04-08T04:33:49;85803.03;;;4.04;72.08
41312;BME280;27061;41.648;24.568;2023-04-08T04:36:16;85767.16;;;3.74;73.43
41312;BME280;27061;41.648;24.568;2023-04-08T04:38:43;85736.78;;;3.43;73.70
41312;BME280;27061;41.648;24.568;2023-04-08T04:41:11;85779.59;;;3.85;73.00
41312;BME280;27061;41.648;24.568;2023-04-08T04:43:38;85727.97;;;3.53;72.49
41312;BME280;27061;41.648;24.568;2023-04-08T04:46:05;85753.50;;;3.76;71.60
41312;BME280;27061;41.648;24.568;2023-04-08T04:48:35;85777.63;;;3.95;72.23
41312;BME280;27061;41.648;24.568;2023-04-08T04:51:02;85745.94;;;3.70;72.27
41312;BME280;27061;41.648;24.568;2023-04-08T04:53:29;85818.28;;;4.23;72.80
41312;BME280;27061;41.648;24.568;2023-04-08T04:55:57;85805.16;;;4.12;73.13
41312;BME280;27061;41.648;24.568;2023-04-08T04:58:27;85827.94;;;4.34;72.09
41312;BME280;27061;41.648;24.568;2023-04-08T05:01:01;85834.13;;;4.37;72.08
41312;BME280;27061;41.648;24.568;2023-04-08T05:03:28;85814.81;;;4.21;71.85
41312;BME280;27061;41.648;24.568;2023-04-08T05:05:55;85758.38;;;3.85;72.45
41312;BME280;27061;41.648;24.568;2023-04-08T05:08:22;85801.09;;;4.19;73.43
41312;BME280;27061;41.648;24.568;2023-04-08T05:10:52;85772.84;;;3.98;73.48
41312;BME280;27061;41.648;24.568;2023-04-08T05:13:21;85839.00;;;4.47;73.61
41312;BME280;27061;41.648;24.568;2023-04-08T05:15:48;85799.06;;;4.21;73.84
41312;BME280;27061;41.648;24.568;2023-04-08T05:18:15;85782.59;;;4.17;73.13
41312;BME280;27061;41.648;24.568;2023-04-08T05:20:42;85785.41;;;4.23;71.51
41312;BME280;27061;41.648;24.568;2023-04-08T05:23:10;85804.72;;;4.41;70.84
41312;BME280;27061;41.648;24.568;2023-04-08T05:25:37;85839.16;;;4.65;71.46
41312;BME280;27061;41.648;24.568;2023-04-08T05:28:04;85829.47;;;4.56;71.35
41312;BME280;27061;41.648;24.568;2023-04-08T05:30:31;85839.19;;;4.71;69.49
41312;BME280;27061;41.648;24.568;2023-04-08T05:32:58;85811.59;;;4.47;69.32
41312;BME280;27061;41.648;24.568;2023-04-08T05:35:27;85836.44;;;4.69;71.55
41312;BME280;27061;41.648;24.568;2023-04-08T05:37:54;85786.13;;;4.30;71.45
41312;BME280;27061;41.648;24.568;2023-04-08T05:40:21;85840.53;;;4.68;71.91
41312;BME280;27061;41.648;24.568;2023-04-08T05:42:48;85790.34;;;4.43;70.02
41312;BME280;27061;41.648;24.568;2023-04-08T05:45:15;85837.84;;;4.78;70.11
41312;BME280;27061;41.648;24.568;2023-04-08T05:47:43;85844.75;;;4.83;69.96
41312;BME280;27061;41.648;24.568;2023-04-08T05:50:10;85782.72;;;4.35;69.39
41312;BME280;27061;41.648;24.568;2023-04-08T05:52:43;85845.50;;;4.94;68.38
41312;BME280;27061;41.648;24.568;2023-04-08T05:55:12;85823.47;;;4.79;68.38
41312;BME280;27061;41.648;24.568;2023-04-08T05:57:40;85806.25;;;4.67;67.50
41312;BME280;27061;41.648;24.568;2023-04-08T06:00:08;85833.19;;;4.97;68.44
41312;BME280;27061;41.648;24.568;2023-04-08T06:02:36;85818.72;;;4.86;69.33
41312;BME280;27061;41.648;24.568;2023-04-08T06:05:04;85807.75;;;4.84;68.77
41312;BME280;27061;41.648;24.568;2023-04-08T06:07:32;85846.31;;;5.12;68.73
41312;BME280;27061;41.648;24.568;2023-04-08T06:09:59;85836.72;;;5.13;65.93
41312;BME280;27061;41.648;24.568;2023-04-08T06:12:27;85763.69;;;4.58;67.16
41312;BME280;27061;41.648;24.568;2023-04-08T06:14:54;85853.25;;;5.26;67.31
41312;BME280;27061;41.648;24.568;2023-04-08T06:17:22;85825.72;;;5.13;66.17
41312;BME280;27061;41.648;24.568;2023-04-08T06:19:49;85844.34;;;5.27;66.72
41312;BME280;27061;41.648;24.568;2023-04-08T06:22:16;85841.59;;;5.31;67.10
41312;BME280;27061;41.648;24.568;2023-04-08T06:24:46;85848.47;;;5.34;68.64
41312;BME280;27061;41.648;24.568;2023-04-08T06:27:13;85853.31;;;5.42;67.75
41312;BME280;27061;41.648;24.568;2023-04-08T06:29:40;85816.16;;;5.19;66.73
41312;BME280;27061;41.648;24.568;2023-04-08T06:32:09;85850.56;;;5.42;65.65
41312;BME280;27061;41.648;24.568;2023-04-08T06:34:36;85768.00;;;4.87;66.36
41312;BME280;27061;41.648;24.568;2023-04-08T06:37:04;85833.41;;;5.43;67.34
41312;BME280;27061;41.648;24.568;2023-04-08T06:39:32;85849.28;;;5.57;67.26
41312;BME280;27061;41.648;24.568;2023-04-08T06:41:59;85841.00;;;5.53;68.10
41312;BME280;27061;41.648;24.568;2023-04-08T06:44:46;85847.91;;;5.62;67.52
41312;BME280;27061;41.648;24.568;2023-04-08T06:47:13;85839.69;;;5.66;67.62
41312;BME280;27061;41.648;24.568;2023-04-08T06:49:40;85799.72;;;5.31;67.27
41312;BME280;27061;41.648;24.568;2023-04-08T06:52:07;85795.69;;;5.48;64.76
41312;BME280;27061;41.648;24.568;2023-04-08T06:54:34;85835.59;;;5.77;64.75
41312;BME280;27061;41.648;24.568;2023-04-08T06:57:01;85836.31;;;5.84;65.50
41312;BME280;27061;41.648;24.568;2023-04-08T06:59:29;85829.44;;;5.81;65.86
41312;BME280;27061;41.648;24.568;2023-04-08T07:01:56;85770.28;;;5.47;66.85
41312;BME280;27061;41.648;24.568;2023-04-08T07:04:24;85761.38;;;5.47;70.15
41312;BME280;27061;41.648;24.568;2023-04-08T07:06:51;85844.63;;;6.04;68.62
41312;BME280;27061;41.648;24.568;2023-04-08T07:09:21;85852.22;;;6.16;65.31
41312;BME280;27061;41.648;24.568;2023-04-08T07:11:48;85861.19;;;6.20;64.20
41312;BME280;27061;41.648;24.568;2023-04-08T07:14:15;85851.56;;;6.21;64.06
41312;BME280;27061;41.648;24.568;2023-04-08T07:16:42;85847.44;;;6.31;64.02
41312;BME280;27061;41.648;24.568;2023-04-08T07:19:09;85839.88;;;6.31;65.90
41312;BME280;27061;41.648;24.568;2023-04-08T07:21:36;85853.66;;;6.43;66.46
41312;BME280;27061;41.648;24.568;2023-04-08T07:24:03;85811.00;;;6.20;66.08
41312;BME280;27061;41.648;24.568;2023-04-08T07:26:30;85749.75;;;5.73;64.71
41312;BME280;27061;41.648;24.568;2023-04-08T07:28:57;85868.78;;;6.58;64.88
41312;BME280;27061;41.648;24.568;2023-04-08T07:31:27;85853.69;;;6.64;64.29
41312;BME280;27061;41.648;24.568;2023-04-08T07:33:54;85857.81;;;6.65;64.95
41312;BME280;27061;41.648;24.568;2023-04-08T07:36:21;85804.16;;;6.45;62.26
41312;BME280;27061;41.648;24.568;2023-04-08T07:38:48;85845.41;;;6.70;62.08
41312;BME280;27061;41.648;24.568;2023-04-08T07:41:16;85848.19;;;6.74;64.01
41312;BME280;27061;41.648;24.568;2023-04-08T07:43:43;85751.88;;;6.05;62.40
41312;BME280;27061;41.648;24.568;2023-04-08T07:46:10;85852.28;;;6.79;64.80
41312;BME280;27061;41.648;24.568;2023-04-08T07:48:37;85842.00;;;6.75;60.00
41312;BME280;27061;41.648;24.568;2023-04-08T07:51:06;85804.84;;;6.42;60.15
41312;BME280;27061;41.648;24.568;2023-04-08T07:53:37;85791.78;;;6.22;63.59
41312;BME280;27061;41.648;24.568;2023-04-08T07:56:12;85857.13;;;6.74;63.35
41312;BME280;27061;41.648;24.568;2023-04-08T07:58:40;85808.97;;;6.39;60.43
41312;BME280;27061;41.648;24.568;2023-04-08T08:01:20;85850.91;;;6.72;61.26
41312;BME280;27061;41.648;24.568;2023-04-08T08:03:49;85860.56;;;6.77;63.23
41312;BME280;27061;41.648;24.568;2023-04-08T08:06:18;85821.34;;;6.52;64.65
41312;BME280;27061;41.648;24.568;2023-04-08T08:08:45;85816.53;;;6.56;62.46
41312;BME280;27061;41.648;24.568;2023-04-08T08:11:12;85854.38;;;6.72;63.83
41312;BME280;27061;41.648;24.568;2023-04-08T08:13:39;85815.84;;;6.52;62.82
41312;BME280;27061;41.648;24.568;2023-04-08T08:16:06;85866.06;;;6.83;59.83
41312;BME280;27061;41.648;24.568;2023-04-08T08:18:41;85822.72;;;6.61;60.21
41312;BME280;27061;41.648;24.568;2023-04-08T08:21:08;85842.66;;;6.70;59.83
41312;BME280;27061;41.648;24.568;2023-04-08T08:23:36;85863.31;;;6.91;60.75
41312;BME280;27061;41.648;24.568;2023-04-08T08:26:05;85823.41;;;6.66;61.51
41312;BME280;27061;41.648;24.568;2023-04-08T08:28:33;85865.38;;;6.88;61.17
41312;BME280;27061;41.648;24.568;2023-04-08T08:31:00;85850.91;;;6.57;62.45
41312;BME280;27061;41.648;24.568;2023-04-08T08:33:28;85836.47;;;6.51;61.72
41312;BME280;27061;41.648;24.568;2023-04-08T08:35:55;85890.16;;;6.88;61.32
41312;BME280;27061;41.648;24.568;2023-04-08T08:38:25;85882.56;;;6.93;62.11
41312;BME280;27061;41.648;24.568;2023-04-08T08:40:53;85817.91;;;6.41;59.69
41312;BME280;27061;41.648;24.568;2023-04-08T08:43:23;85879.81;;;6.93;60.55
41312;BME280;27061;41.648;24.568;2023-04-08T08:45:50;85800.72;;;6.31;61.69
41312;BME280;27061;41.648;24.568;2023-04-08T08:48:17;85819.28;;;6.42;62.07
41312;BME280;27061;41.648;24.568;2023-04-08T08:50:44;85835.09;;;6.54;62.90
41312;BME280;27061;41.648;24.568;2023-04-08T08:53:12;85807.59;;;6.34;62.09
41312;BME280;27061;41.648;24.568;2023-04-08T08:55:39;85807.59;;;6.34;62.23
41312;BME280;27061;41.648;24.568;2023-04-08T08:58:26;85877.06;;;6.91;61.53
41312;BME280;27061;41.648;24.568;2023-04-08T09:01:01;85824.78;;;6.54;61.80
41312;BME280;27061;41.648;24.568;2023-04-08T09:03:28;85856.41;;;6.53;59.63
41312;BME280;27061;41.648;24.568;2023-04-08T09:05:58;85762.88;;;5.88;62.21
41312;BME280;27061;41.648;24.568;2023-04-08T09:08:33;85815.16;;;6.35;62.45
41312;BME280;27061;41.648;24.568;2023-04-08T09:11:18;85881.19;;;6.92;62.02
41312;BME280;27061;41.648;24.568;2023-04-08T09:13:46;85824.09;;;6.32;63.48
41312;BME280;27061;41.648;24.568;2023-04-08T09:16:16;85873.63;;;6.82;63.87
41312;BME280;27061;41.648;24.568;2023-04-08T09:18:45;85866.06;;;6.77;62.63
41312;BME280;27061;41.648;24.568;2023-04-08T09:21:16;85890.81;;;7.03;63.73
41312;BME280;27061;41.648;24.568;2023-04-08T09:23:46;85860.56;;;6.83;62.69
41312;BME280;27061;41.648;24.568;2023-04-08T09:26:21;85892.91;;;7.07;66.28
41312;BME280;27061;41.648;24.568;2023-04-08T09:29:08;85758.78;;;6.12;63.80
41312;BME280;27061;41.648;24.568;2023-04-08T09:31:56;85867.44;;;7.02;62.57
41312;BME280;27061;41.648;24.568;2023-04-08T09:34:27;85865.38;;;7.05;61.18
41312;BME280;27061;41.648;24.568;2023-04-08T09:36:56;85877.06;;;7.29;60.10
41312;BME280;27061;41.648;24.568;2023-04-08T09:39:23;85905.28;;;7.26;59.31
41312;BME280;27061;41.648;24.568;2023-04-08T09:41:51;85875.69;;;7.16;56.62
41312;BME280;27061;41.648;24.568;2023-04-08T09:44:19;85871.56;;;7.05;57.11
41312;BME280;27061;41.648;24.568;2023-04-08T09:49:33;85852.28;;;6.91;58.01
41312;BME280;27061;41.648;24.568;2023-04-08T09:55:02;85842.00;;;6.87;55.16
41312;BME280;27061;41.648;24.568;2023-04-08T10:00:24;85846.81;;;6.83;55.15
41312;BME280;27061;41.648;24.568;2023-04-08T10:05:36;85861.91;;;6.90;56.43
41312;BME280;27061;41.648;24.568;2023-04-08T10:08:11;85898.41;;;7.15;57.91
41312;BME280;27061;41.648;24.568;2023-04-08T10:10:42;85858.50;;;6.91;57.24
41312;BME280;27061;41.648;24.568;2023-04-08T10:13:15;85882.59;;;7.09;57.88
41312;BME280;27061;41.648;24.568;2023-04-08T10:15:42;85872.94;;;7.00;58.63
41312;BME280;27061;41.648;24.568;2023-04-08T10:20:40;85896.31;;;7.35;57.86
41312;BME280;27061;41.648;24.568;2023-04-08T10:23:10;85910.78;;;7.38;58.50
41312;BME280;27061;41.648;24.568;2023-04-08T10:25:46;85907.34;;;7.35;59.44
41312;BME280;27061;41.648;24.568;2023-04-08T10:30:46;85907.34;;;7.40;58.09
41312;BME280;27061;41.648;24.568;2023-04-08T10:36:11;85898.38;;;7.35;60.93
41312;BME280;27061;41.648;24.568;2023-04-08T10:38:41;85890.78;;;7.44;60.19
41312;BME280;27061;41.648;24.568;2023-04-08T10:41:11;85841.28;;;6.97;59.53
41312;BME280;27061;41.648;24.568;2023-04-08T10:43:47;85903.19;;;7.32;58.71
41312;BME280;27061;41.648;24.568;2023-04-08T10:46:14;85883.25;;;7.26;59.13
41312;BME280;27061;41.648;24.568;2023-04-08T10:48:43;85859.19;;;7.08;59.19
41312;BME280;27061;41.648;24.568;2023-04-08T10:51:10;85916.97;;;7.34;57.97
41312;BME280;27061;41.648;24.568;2023-04-08T10:53:37;85908.00;;;7.42;58.51
41312;BME280;27061;41.648;24.568;2023-04-08T10:56:08;85907.31;;;7.31;59.97
41312;BME280;27061;41.648;24.568;2023-04-08T10:58:50;85860.56;;;6.85;59.82
41312;BME280;27061;41.648;24.568;2023-04-08T11:01:18;85843.34;;;6.60;60.44
41312;BME280;27061;41.648;24.568;2023-04-08T11:03:45;85863.31;;;6.75;61.86
41312;BME280;27061;41.648;24.568;2023-04-08T11:06:13;85899.78;;;7.16;60.82
41312;BME280;27061;41.648;24.568;2023-04-08T11:08:40;85890.13;;;7.03;60.54
41312;BME280;27061;41.648;24.568;2023-04-08T11:11:07;85867.44;;;6.86;61.60
41312;BME280;27061;41.648;24.568;2023-04-08T11:13:39;85893.59;;;7.09;61.46
41312;BME280;27061;41.648;24.568;2023-04-08T11:16:18;85883.94;;;6.94;61.61
41312;BME280;27061;41.648;24.568;2023-04-08T11:18:46;85835.78;;;6.63;62.51
41312;BME280;27061;41.648;24.568;2023-04-08T11:21:14;85867.44;;;6.90;62.90
41312;BME280;27061;41.648;24.568;2023-04-08T11:23:42;85879.81;;;6.93;63.32
41312;BME280;27061;41.648;24.568;2023-04-08T11:26:10;85895.63;;;7.13;63.32
41312;BME280;27061;41.648;24.568;2023-04-08T11:28:37;85899.06;;;7.21;63.12
41312;BME280;27061;41.648;24.568;2023-04-08T11:31:04;85817.22;;;6.65;62.12
41312;BME280;27061;41.648;24.568;2023-04-08T11:33:33;85860.56;;;6.85;65.99
41312;BME280;27061;41.648;24.568;2023-04-08T11:36:01;85885.31;;;7.17;66.12
41312;BME280;27061;41.648;24.568;2023-04-08T11:38:31;85871.56;;;7.17;63.12
41312;BME280;27061;41.648;24.568;2023-04-08T11:40:58;85865.34;;;7.11;64.89
41312;BME280;27061;41.648;24.568;2023-04-08T11:43:26;85879.13;;;7.19;65.32
41312;BME280;27061;41.648;24.568;2023-04-08T11:45:54;85849.53;;;6.91;65.71
41312;BME280;27061;41.648;24.568;2023-04-08T11:48:21;85850.91;;;6.94;64.59
41312;BME280;27061;41.648;24.568;2023-04-08T11:51:05;85874.28;;;7.23;62.88
41312;BME280;27061;41.648;24.568;2023-04-08T11:53:34;85889.44;;;7.28;63.60
41312;BME280;27061;41.648;24.568;2023-04-08T11:56:20;85847.50;;;6.87;64.41
41312;BME280;27061;41.648;24.568;2023-04-08T11:58:49;85859.88;;;6.96;65.29
41312;BME280;27061;41.648;24.568;2023-04-08T12:01:18;85853.69;;;6.96;65.28
41312;BME280;27061;41.648;24.568;2023-04-08T12:03:58;85879.13;;;7.13;67.87
41312;BME280;27061;41.648;24.568;2023-04-08T12:06:44;85753.28;;;6.22;67.76
41312;BME280;27061;41.648;24.568;2023-04-08T12:09:19;85807.56;;;6.78;68.20
41312;BME280;27061;41.648;24.568;2023-04-08T12:11:47;85870.16;;;7.30;65.43
41312;BME280;27061;41.648;24.568;2023-04-08T12:14:14;85848.13;;;7.22;63.67
41312;BME280;27061;41.648;24.568;2023-04-08T12:16:41;85867.44;;;7.16;65.16
41312;BME280;27061;41.648;24.568;2023-04-08T12:19:09;85868.78;;;7.27;65.52
41312;BME280;27061;41.648;24.568;2023-04-08T12:21:36;85831.63;;;7.16;64.58
41312;BME280;27061;41.648;24.568;2023-04-08T12:24:04;85863.28;;;7.40;64.22
41312;BME280;27061;41.648;24.568;2023-04-08T12:26:31;85827.53;;;7.05;65.52
41312;BME280;27061;41.648;24.568;2023-04-08T12:28:59;85808.94;;;6.93;66.30
41312;BME280;27061;41.648;24.568;2023-04-08T12:31:26;85845.38;;;7.24;65.56
41312;BME280;27061;41.648;24.568;2023-04-08T12:33:54;85852.25;;;7.21;63.04
41312;BME280;27061;41.648;24.568;2023-04-08T12:36:21;85811.00;;;6.89;64.02
41312;BME280;27061;41.648;24.568;2023-04-08T12:38:49;85773.91;;;6.43;63.01
41312;BME280;27061;41.648;24.568;2023-04-08T12:41:16;85822.00;;;7.01;63.46
41312;BME280;27061;41.648;24.568;2023-04-08T12:43:44;85767.72;;;6.61;63.13
41312;BME280;27061;41.648;24.568;2023-04-08T12:46:11;85846.09;;;7.17;64.16
41312;BME280;27061;41.648;24.568;2023-04-08T12:48:39;85843.34;;;7.13;64.33
41312;BME280;27061;41.648;24.568;2023-04-08T12:51:06;85798.63;;;6.92;62.90
41312;BME280;27061;41.648;24.568;2023-04-08T12:53:36;85806.88;;;7.02;63.44
41312;BME280;27061;41.648;24.568;2023-04-08T12:56:03;85843.97;;;7.42;64.07
41312;BME280;27061;41.648;24.568;2023-04-08T12:58:31;85848.06;;;7.53;63.20
41312;BME280;27061;41.648;24.568;2023-04-08T13:00:58;85813.69;;;7.40;62.39
41312;BME280;27061;41.648;24.568;2023-04-08T13:03:26;85846.72;;;7.52;63.95
41312;BME280;27061;41.648;24.568;2023-04-08T13:05:56;85834.31;;;7.47;66.10
41312;BME280;27061;41.648;24.568;2023-04-08T13:08:25;85834.28;;;7.55;67.45
41312;BME280;27061;41.648;24.568;2023-04-08T13:10:52;85776.56;;;7.12;67.06
41312;BME280;27061;41.648;24.568;2023-04-08T13:13:21;85756.63;;;7.04;69.58
41312;BME280;27061;41.648;24.568;2023-04-08T13:15:48;85821.91;;;7.56;69.38
41312;BME280;27061;41.648;24.568;2023-04-08T13:18:16;85749.72;;;7.15;69.70
41312;BME280;27061;41.648;24.568;2023-04-08T13:20:44;85788.88;;;7.50;70.53
41312;BME280;27061;41.648;24.568;2023-04-08T13:23:19;85800.53;;;7.58;70.27
41312;BME280;27061;41.648;24.568;2023-04-08T13:44:18;85820.41;;;7.89;64.42
41312;BME280;27061;41.648;24.568;2023-04-08T13:46:46;85779.19;;;7.59;64.87